Picayune, MS (39466)

03:34 PM CDT die 23o October, anno 2014 (GMT -0500)
Hide_A_Way Lake ~OWX | Change Station
CLOSE
Current Station
Personal Weather Stations
Location: Carriere, MS
Elevation: 100 ft
Nearby Weather Stations

Elev 100 ft 30.58 °N, 89.65 °W | Updated 9 seconds ago

Serena
Serena
77.7 °F
Feels Like 78 °F
N
4.0
Ventus Variabilis Ventus from Magis Eurus quam Aquilo
Gusts 5.0 mph

Hodie
High -- | Low -- °F
--% Chance of Precip.
Yesterday
High -- | Low -- °F
Precip. -- in
7:06 AM 6:18 PM
Waning Crescent, 0% visible
Pressio 30.04 in
Visibilitas 10.0 milia passuum
Clouds Serena
Index Caloris 78 °F
Frigus in quo Ros apparet 50 °F
Umor 38%
Rainfall 0.00 in
Snow Depth Not available.
UV 2.2 out of 12
Pollen 3.30 out of 12
Ozone Good
PM2.5 Good
Flu Activity No Activity
METAR KASD 231953Z AUTO 36005KT 10SM CLR 24/07 A3004 RMK AO2 SLP171 T02390072

More Conditions Fewer Conditions

Pressio 30.04 in
Visibilitas 10.0 milia passuum
Clouds Serena
Index Caloris 78 °F
Frigus in quo Ros apparet 50 °F
Umor 38%
Rainfall 0.00 in
Snow Depth Not available.
UV 2.2 out of 12
Pollen 3.30 out of 12
Ozone Good
PM2.5 Good
Flu Activity No Activity
METAR KASD 231953Z AUTO 36005KT 10SM CLR 24/07 A3004 RMK AO2 SLP171 T02390072

More Conditions Fewer Conditions

10-Day Weather Forecast

Almanac

Astronomy

Oct. 23, 2014 Rise Set
Actual Time 7:06 AM CDT 6:18 PM CDT
Civil Twilight 6:42 AM CDT 6:43 PM CDT
Nautical Twilight 6:13 AM CDT 7:11 PM CDT
Astronomical Twilight 5:45 AM CDT 7:39 PM CDT
Moon 6:47 AM CDT 6:20 PM CDT
Length Of Visible Light 12h 01m
Length of Day
11h 12m
Tomorrow will be 1m 42s shorter.
Waning Crescent, 0% of the Moon is Illuminated
Hodie
Waning Crescent
Oct 23
New
Oct 30
First Quarter
Nov 6
Full
Nov 14
Last Quarter

Today's Extremes

State Highs State Lows

Community

WunderPhotos

Upload Photos

1,764,361 photos uploaded!

WunderBlogs® & News

By Dr. Jeff Masters
Director of Meteorology, Weather Underground
By Kari Strenfel
Meteorologist, Weather Underground
By Christopher C. Burt
Weather Historian, Weather Underground
October 23, 2014
October 23, 2014
October 23, 2014

Nearby

Air Quality

  Air Quality AQ Index Pollutant
Yesterday Good
PM2.5
Yesterday Good
OZONE
Current Good
OZONE
Current Good
PM2.5
Die Jovis Good
OZONE
Die Jovis Good
PM2.5
Die Veneris Good
OZONE
Die Veneris Good
PM2.5
Die Saturni Good
OZONE
Die Saturni Good
PM2.5
Die Solis Good
OZONE
Die Solis Good
PM2.5

Snow Depth

Station Depth Elevation
No new snow has been reported.

Earthquake Activity

City Distance Mag. Time & Date
No recent earthquake activity has been reported nearby.
Minimum magnitude displayed is 2.5.

Coastal Water Temperatures

Locus Calor
No Stations Reporting

Nearby Weather Stations